Terminal Aerodrome Forecast
Issued by NWS Jackson, MS

Home | Current Version | Previous Version | Text Only | Print | Product List | Glossary On
Versions: 1 2 3 4 5 6 7 8 9 10 11 12 13 14 15 16
000
FTUS44 KJAN 020254 RRA
TAFJAN
TAF
KJAN 020254Z 0203/0224 16005KT P6SM SCT250
     FM020800 17005KT P6SM SCT015
     FM021500 18012G18KT P6SM BKN015 BKN050
     FM021800 20015G22KT P6SM SCT015 BKN050
     FM022000 20018G28KT P6SM -SHRA VCTS SCT020CB BKN050=

USA.gov is the U.S. government's official web portal to all federal, state and local government web resources and services.